Neeses, SC (29107)

9:08 PM EST on February 09, 2016 (GMT -0500)
Foreback Place, North, SC | | Change Station
CLOSE
Current Station
Personal Weather Station
Location: North, SC
Elevation: 285 ft
Nearby Weather Stations
Active Advisory: Lake Wind Advisory

Elev 285 ft 33.64 °N, 81.15 °W | Updated 31 seconds ago

Mostly Cloudy
Mostly Cloudy
35.4 °F
Feels Like 31 °F
N
5.6
Wind Variable Wind from WSW
Gusts 7.4 mph

Today
High -- | Low -- °F
--% Chance of Precip.
Yesterday
High -- | Low -- °F
Precip. -- in
Pressure 29.92 in
Visibility 10.0 miles
Clouds Few 5000 ft
Scattered Clouds 8500 ft
Windchill 31 °F
Dew Point 10 °F
Humidity 35%
Rainfall 0.00 in
Snow Depth Not available.
7:14 AM 6:03 PM
Waxing Crescent, 3% visible
METAR KOGB 100153Z AUTO 31008KT 10SM FEW050 SCT085 03/M06 A2992 RMK AO2 SLP132 T00281056
Pressure 29.92 in
Visibility 10.0 miles
Clouds Few 5000 ft
Scattered Clouds 8500 ft
Windchill 31 °F
Dew Point 10 °F
Humidity 35%
Rainfall 0.00 in
Snow Depth Not available.
7:14 AM 6:03 PM
Waxing Crescent, 3% visible
METAR KOGB 100153Z AUTO 31008KT 10SM FEW050 SCT085 03/M06 A2992 RMK AO2 SLP132 T00281056

10-Day Weather Forecast

Almanac

Astronomy

Feb. 09, 2016 Rise Set
Actual Time
Civil Twilight
Nautical Twilight
Astronomical Twilight
Moon
Length of Visible Light
Length of Day
Tomorrow will be .
, % of the Moon is Illuminated

Today's Extremes

State Highs State Lows

Community

WunderPhotos

Upload Photos

1,891,760 photos uploaded!

WunderBlog® & News

Nearby

Air Quality

  Air Quality AQ Index Pollutant
Not available.

Snow Depth

Station Depth Elevation

Earthquake Activity

City Distance Mag. Time & Date
Minimum magnitude displayed is 2.5.

Coastal Water Temperatures

Place Temperature

Stations

Nearby Weather Stations

Station Location Temp. Windchill Dew Point Humidity Wind Precip. Elev Updated Type
                   

Watches & Warnings

Lake Wind Advisory
Issued: 2:32 PM EST Feb. 9, 2016 – National Weather Service

... Lake Wind Advisory remains in effect until 11 PM EST
Wednesday...

* timing... today through Wednesday evening.

* Winds... west 20 to 30 knots.

* Impacts... strong winds and rough chop will create hazardous
conditions for small craft and personal watercraft.

Precautionary/preparedness actions...

A lake Wind Advisory indicates that winds will cause rough chop
on area lakes. Small boats will be especially prone to capsizing.